createdAt,value
2017-08-07T00:01:07.192Z,63.15
2017-08-07T00:03:31.224Z,63.25
2017-08-07T00:05:55.184Z,63.15
2017-08-07T00:08:19.159Z,63.89
2017-08-07T00:10:43.122Z,63.79
2017-08-07T00:13:07.102Z,64.28
2017-08-07T00:15:22.691Z,63.54
2017-08-07T00:17:29.789Z,64.08
2017-08-07T00:19:53.718Z,63.54
2017-08-07T00:22:00.750Z,64.76
2017-08-07T00:24:24.707Z,65.14
2017-08-07T00:26:48.649Z,65.2
2017-08-07T00:29:12.595Z,66.46
2017-08-07T00:31:36.551Z,67.48
2017-08-07T00:34:00.473Z,67.03
2017-08-07T00:36:24.414Z,66.36
2017-08-07T00:38:39.893Z,66.55
2017-08-07T00:40:55.383Z,67.8
2017-08-07T00:43:19.301Z,66.94
2017-08-07T00:45:43.204Z,67.51
2017-08-07T00:48:07.086Z,67.68
2017-08-07T00:50:31.008Z,68.25
2017-08-07T00:52:32.348Z,68.54
2017-08-07T00:54:56.303Z,68.25
2017-08-07T00:57:11.812Z,67.8
2017-08-07T00:59:35.726Z,67.96
2017-08-07T01:01:51.187Z,68.73
2017-08-07T01:04:06.644Z,68.25
2017-08-07T01:06:07.976Z,68.63
2017-08-07T01:08:23.416Z,69.02
2017-08-07T01:10:47.319Z,68.73
2017-08-07T01:13:11.218Z,69.21
2017-08-07T01:15:35.123Z,69.21
2017-08-07T01:17:58.960Z,68.83
2017-08-07T01:20:22.851Z,69.12
2017-08-07T01:22:46.818Z,69.56
2017-08-07T01:25:10.706Z,69.4
2017-08-07T01:27:34.610Z,69.21
2017-08-07T01:29:41.598Z,69.21
2017-08-07T01:31:57.071Z,68.98
2017-08-07T01:34:20.978Z,69.4
2017-08-07T01:36:22.322Z,69.66
2017-08-07T01:38:46.249Z,69.75
2017-08-07T01:41:10.110Z,69.66
2017-08-07T01:43:33.995Z,69.85
2017-08-07T01:45:57.872Z,69.75
2017-08-07T01:48:13.347Z,70.39
2017-08-07T01:50:37.217Z,70.33
2017-08-07T01:52:38.531Z,69.85
2017-08-07T01:54:53.995Z,69.95
2017-08-07T01:57:09.421Z,69.95
2017-08-07T01:59:33.284Z,70.23
2017-08-07T02:01:57.151Z,70.04
2017-08-07T02:04:12.596Z,70.33
2017-08-07T02:06:36.395Z,69.95
2017-08-07T02:08:37.730Z,69.95
2017-08-07T02:11:01.615Z,70.1
2017-08-07T02:13:17.045Z,70.39
2017-08-07T02:15:40.871Z,70.49
2017-08-07T02:18:04.707Z,71.25
2017-08-07T02:20:28.543Z,70.97
2017-08-07T02:22:43.956Z,71.25
2017-08-07T02:24:36.840Z,71.45
2017-08-07T02:26:52.279Z,70.58
2017-08-07T02:29:16.110Z,69.43
2017-08-07T02:31:39.946Z,69.81
2017-08-07T02:34:03.779Z,69.75
2017-08-07T02:36:27.599Z,71.41
2017-08-07T02:38:43.007Z,71.35
2017-08-07T02:40:58.421Z,71.7
2017-08-07T02:43:05.406Z,71.51
2017-08-07T02:45:29.207Z,72.56
2017-08-07T02:47:53.065Z,72.28
2017-08-07T02:50:08.405Z,72.47
2017-08-07T02:52:32.203Z,71.89
2017-08-07T02:54:56.005Z,72.37
2017-08-07T02:57:11.368Z,71.7
2017-08-07T02:59:26.702Z,71.61
2017-08-07T03:01:42.062Z,72.47
2017-08-07T03:03:57.432Z,73.1
2017-08-07T03:06:21.209Z,73.68
2017-08-07T03:08:44.990Z,73.04
2017-08-07T03:10:46.294Z,73.58
2017-08-07T03:13:10.113Z,73.77
2017-08-07T03:15:25.485Z,73.04
2017-08-07T03:17:49.275Z,74.06
2017-08-07T03:20:04.646Z,74.26
2017-08-07T03:22:28.414Z,74.54
2017-08-07T03:24:38.298Z,74.54
2017-08-07T03:27:02.085Z,74.06
2017-08-07T03:29:25.859Z,74.26
2017-08-07T03:31:32.808Z,73.43
2017-08-07T03:33:48.175Z,72.66
2017-08-07T03:36:11.971Z,73.49
2017-08-07T03:38:35.767Z,74.26
2017-08-07T03:40:42.720Z,74.73
2017-08-07T03:43:06.497Z,74.64
2017-08-07T03:45:30.267Z,74.16
2017-08-07T03:47:45.608Z,73.49
2017-08-07T03:49:46.899Z,74.26
2017-08-07T03:52:10.679Z,74.64
2017-08-07T03:54:12.454Z,74.54
2017-08-07T03:56:36.271Z,75.21
2017-08-07T03:58:51.588Z,74.26
2017-08-07T04:01:06.917Z,75.08
2017-08-07T04:03:30.677Z,75.08
2017-08-07T04:05:40.524Z,75.18
2017-08-07T04:07:50.315Z,75.46
2017-08-07T04:10:14.099Z,75.37
2017-08-07T04:12:37.863Z,76.32
2017-08-07T04:15:01.620Z,76.04
2017-08-07T04:17:16.919Z,76.23
2017-08-07T04:19:40.656Z,75.65
2017-08-07T04:21:41.949Z,75.65
2017-08-07T04:23:57.315Z,76.14
2017-08-07T04:26:12.643Z,75.02
2017-08-07T04:28:27.988Z,74.93
2017-08-07T04:30:43.244Z,75.65
2017-08-07T04:33:06.928Z,75.12
2017-08-07T04:35:30.676Z,75.46
2017-08-07T04:37:54.438Z,75.7
2017-08-07T04:40:09.776Z,75.75
2017-08-07T04:42:25.114Z,75.95
2017-08-07T04:44:48.871Z,76.32
2017-08-07T04:47:12.646Z,75.65
2017-08-07T04:49:36.419Z,75.21
2017-08-07T04:51:51.783Z,74.93
2017-08-07T04:54:15.580Z,75.7
2017-08-07T04:56:30.949Z,71.77
2017-08-07T04:58:54.775Z,63.6
2017-08-07T05:01:18.702Z,57.19
2017-08-07T05:03:42.757Z,52.2
2017-08-07T05:06:06.957Z,49.73
2017-08-07T05:08:31.271Z,44.99
2017-08-07T05:10:47.261Z,41.6
2017-08-07T05:13:11.863Z,39.1
2017-08-07T05:15:28.138Z,38.73
2017-08-07T05:17:52.976Z,36.18
2017-08-07T05:20:17.905Z,34.16
2017-08-07T05:22:42.955Z,32.18
2017-08-07T05:25:08.119Z,30.55
2017-08-07T05:27:33.366Z,27.87
2017-08-07T05:29:50.199Z,28.52
2017-08-07T05:32:15.605Z,26.92
2017-08-07T05:34:41.095Z,25.76
2017-08-07T05:37:06.655Z,26.43
2017-08-07T05:39:32.201Z,25.29
2017-08-07T05:41:57.839Z,24.14
2017-08-07T05:44:06.516Z,22.06
2017-08-07T05:46:32.328Z,21.37
2017-08-07T05:48:58.147Z,21.86
2017-08-07T05:51:24.073Z,19.74
2017-08-07T05:53:50.080Z,19.35
2017-08-07T05:55:51.950Z,19.24
2017-08-07T05:58:18.058Z,18.66
2017-08-07T06:00:44.230Z,17.31
2017-08-07T06:03:10.480Z,18.28
2017-08-07T06:05:36.772Z,18.93
2017-08-07T06:07:54.544Z,18.58
2017-08-07T06:10:20.988Z,17.9
2017-08-07T06:12:47.433Z,15.47
2017-08-07T06:15:13.947Z,14.12
2017-08-07T06:17:40.520Z,15.38
2017-08-07T06:20:07.157Z,14.1
2017-08-07T06:22:25.279Z,14.87
2017-08-07T06:24:52.030Z,14.98
2017-08-07T06:27:18.809Z,13.82
2017-08-07T06:29:37.053Z,14.3
2017-08-07T06:32:03.936Z,13.92
2017-08-07T06:34:22.222Z,13.22
2017-08-07T06:36:49.189Z,12.84
2017-08-07T06:39:16.211Z,12.55
2017-08-07T06:41:27.539Z,11.77
2017-08-07T06:43:55.930Z,11.94
2017-08-07T06:49:13.539Z,15.75
2017-08-07T06:51:43.513Z,13.92
2017-08-07T06:54:11.325Z,12.76
2017-08-07T06:56:34.097Z,13.15
2017-08-07T06:59:04.610Z,14.47
2017-08-07T07:01:32.030Z,13.43
2017-08-07T07:04:01.594Z,10.9
2017-08-07T07:09:50.149Z,15.18
2017-08-07T07:12:18.696Z,18.08
2017-08-07T07:14:48.845Z,22.13
2017-08-07T07:17:16.248Z,21.28
2017-08-07T07:19:43.146Z,22.44
2017-08-07T07:22:10.085Z,22.44
2017-08-07T07:24:36.895Z,24.27
2017-08-07T07:27:03.596Z,25.31
2017-08-07T07:31:09.522Z,29.51
2017-08-07T07:33:36.033Z,31.05
2017-08-07T07:36:02.210Z,29.74
2017-08-07T07:38:28.284Z,30.02
2017-08-07T07:40:54.293Z,30.49
2017-08-07T07:43:20.149Z,29.43
2017-08-07T07:45:47.029Z,27.92
2017-08-07T07:48:12.914Z,27.14
2017-08-07T07:50:38.711Z,26.87
2017-08-07T07:53:04.617Z,27.53
2017-08-07T07:55:33.125Z,26.59
2017-08-07T07:58:02.007Z,24.69
2017-08-07T08:00:27.993Z,24.85
2017-08-07T08:02:54.251Z,26.59
2017-08-07T08:05:11.760Z,25.37
2017-08-07T08:07:37.543Z,25.05
2017-08-07T08:09:54.893Z,25.73
2017-08-07T08:12:20.656Z,25.54
2017-08-07T08:14:46.597Z,25.09
2017-08-07T08:17:12.350Z,23.74
2017-08-07T08:19:38.157Z,25.46
2017-08-07T08:21:49.108Z,24.6
2017-08-07T08:24:00.079Z,23.43
2017-08-07T08:26:25.870Z,24.87
2017-08-07T08:28:51.725Z,26.1
2017-08-07T08:31:09.022Z,28.5
2017-08-07T08:33:35.481Z,27.18
2017-08-07T08:36:01.222Z,26.8
2017-08-07T08:38:26.945Z,26.31
2017-08-07T08:40:52.658Z,26.48
2017-08-07T08:43:18.364Z,27.93
2017-08-07T08:45:44.026Z,27.91
2017-08-07T08:48:09.783Z,29.37
2017-08-07T08:50:35.269Z,30.72
2017-08-07T08:54:37.662Z,28.05
2017-08-07T08:57:03.274Z,26.89
2017-08-07T08:59:28.892Z,26.01
2017-08-07T09:01:54.549Z,25.09
2017-08-07T09:04:20.195Z,24.41
2017-08-07T09:06:45.848Z,24.38
2017-08-07T09:08:56.781Z,23.56
2017-08-07T09:11:13.973Z,22.27
2017-08-07T09:13:31.214Z,22.95
2017-08-07T09:15:56.807Z,26.08
2017-08-07T09:18:22.515Z,25.92
2017-08-07T09:20:48.142Z,24.66
2017-08-07T09:23:13.749Z,23.33
2017-08-07T09:25:39.396Z,22.13
2017-08-07T09:28:04.958Z,24.14
2017-08-07T09:30:07.246Z,24.98
2017-08-07T09:32:32.914Z,25.73
2017-08-07T09:36:34.952Z,27.87
2017-08-07T09:39:00.478Z,25.67
2017-08-07T09:41:26.025Z,25.03
2017-08-07T09:43:51.556Z,23.72
2017-08-07T09:46:17.078Z,26.82
2017-08-07T09:48:42.548Z,27.9
2017-08-07T09:51:07.987Z,27.84
2017-08-07T09:53:33.376Z,26.52
2017-08-07T09:55:58.750Z,28.06
2017-08-07T09:58:24.121Z,28.92
2017-08-07T10:00:49.521Z,28.95
2017-08-07T10:03:14.965Z,25.78
2017-08-07T10:05:40.281Z,23.39
2017-08-07T10:08:05.709Z,29.17
2017-08-07T10:10:31.073Z,32.66
2017-08-07T10:12:56.533Z,33.33
2017-08-07T10:15:21.767Z,33.46
2017-08-07T10:17:47.117Z,30.8
2017-08-07T10:20:12.361Z,28.83
2017-08-07T10:22:37.670Z,27.73
2017-08-07T10:24:48.426Z,27.46
2017-08-07T10:27:13.746Z,28.97
2017-08-07T10:29:39.025Z,33.83
2017-08-07T10:32:04.223Z,32.71
2017-08-07T10:34:20.887Z,33.98
2017-08-07T10:36:46.013Z,32.42
2017-08-07T10:39:11.146Z,33.2
2017-08-07T10:41:36.255Z,31.87
2017-08-07T10:44:01.356Z,30.51
2017-08-07T10:46:26.410Z,30.61
2017-08-07T10:48:51.475Z,32.42
2017-08-07T10:51:08.011Z,31.95
2017-08-07T10:53:33.043Z,33.77
2017-08-07T10:55:58.085Z,36.14
2017-08-07T10:58:23.082Z,34.08
2017-08-07T11:00:48.108Z,33.41
2017-08-07T11:03:13.074Z,33.9
2017-08-07T11:05:38.088Z,35.3
2017-08-07T11:08:03.062Z,35.02
2017-08-07T11:10:19.629Z,34.65
2017-08-07T11:12:44.518Z,34.45
2017-08-07T11:15:09.523Z,34.16
2017-08-07T11:17:34.448Z,35.78
2017-08-07T11:19:59.433Z,37.48
2017-08-07T11:22:15.893Z,36.92
2017-08-07T11:24:17.988Z,35.61
2017-08-07T11:26:42.934Z,34.84
2017-08-07T11:29:07.841Z,35.61
2017-08-07T11:31:32.711Z,35.67
2017-08-07T11:33:57.606Z,35.38
2017-08-07T11:36:14.030Z,36.25
2017-08-07T11:37:58.643Z,37.21
2017-08-07T11:40:23.574Z,35.49
2017-08-07T11:42:48.494Z,34.53
2017-08-07T11:45:13.377Z,35.41
2017-08-07T11:47:38.239Z,35.57
2017-08-07T11:50:03.103Z,34.26
2017-08-07T11:52:27.979Z,33.95
2017-08-07T11:54:52.918Z,33.95
2017-08-07T11:57:17.756Z,35.85
2017-08-07T11:59:42.635Z,35.94
2017-08-07T12:02:07.522Z,34.53
2017-08-07T12:04:15.449Z,33.92
2017-08-07T12:06:31.838Z,33.46
2017-08-07T12:08:56.741Z,33.28
2017-08-07T12:11:21.673Z,35.36
2017-08-07T12:13:38.107Z,35.75
2017-08-07T12:15:39.683Z,36.53
2017-08-07T12:17:56.057Z,36.43
2017-08-07T12:20:20.917Z,35.96
2017-08-07T12:22:45.807Z,35.85
2017-08-07T12:25:02.195Z,34.61
2017-08-07T12:27:27.078Z,35.83
2017-08-07T12:29:51.948Z,35.96
2017-08-07T12:32:08.284Z,36.32
2017-08-07T12:34:09.783Z,36.43
2017-08-07T12:36:34.671Z,35.36
2017-08-07T12:38:59.471Z,35.93
2017-08-07T12:41:24.295Z,36.51
2017-08-07T12:43:40.648Z,36.33
2017-08-07T12:45:56.985Z,36.61
2017-08-07T12:48:21.812Z,36.8
2017-08-07T12:50:46.712Z,35.94
2017-08-07T12:53:11.476Z,37.45
2017-08-07T12:55:27.757Z,36.79
2017-08-07T12:57:52.542Z,37.46
2017-08-07T13:00:17.355Z,36.69
2017-08-07T13:02:33.670Z,36.61
2017-08-07T13:04:58.477Z,36.12
2017-08-07T13:07:23.270Z,36.59
2017-08-07T13:09:48.084Z,36.88
2017-08-07T13:12:12.887Z,36.69
2017-08-07T13:14:37.725Z,36.1
2017-08-07T13:16:54.033Z,34.95
2017-08-07T13:19:10.378Z,34.97
2017-08-07T13:21:35.181Z,35.73
2017-08-07T13:23:43.046Z,35.26
2017-08-07T13:26:07.799Z,35.26
2017-08-07T13:28:32.634Z,36.12
2017-08-07T13:30:57.423Z,35.36
2017-08-07T13:33:22.248Z,36.1
2017-08-07T13:35:47.082Z,35.63
2017-08-07T13:37:48.649Z,35.44
2017-08-07T13:40:05.025Z,34.59
2017-08-07T13:42:21.354Z,35.16
2017-08-07T13:44:22.912Z,35.03
2017-08-07T13:46:47.743Z,34.47
2017-08-07T13:49:12.551Z,34.94
2017-08-07T13:51:37.318Z,34.56
2017-08-07T13:53:53.652Z,34.84
2017-08-07T13:56:18.429Z,34.08
2017-08-07T13:58:43.240Z,34.45
2017-08-07T14:01:08.081Z,34.86
2017-08-07T14:03:18.234Z,34.58
2017-08-07T14:05:43.034Z,34.09
2017-08-07T14:08:07.871Z,34.94
2017-08-07T14:10:24.188Z,33.9
2017-08-07T14:12:40.477Z,34.17
2017-08-07T14:14:42.026Z,34.08
2017-08-07T14:17:06.877Z,35.03
2017-08-07T14:19:31.668Z,34.86
2017-08-07T14:21:41.814Z,34.19
2017-08-07T14:24:06.644Z,34.66
2017-08-07T14:26:31.468Z,34.95
2017-08-07T14:28:56.284Z,34.48
2017-08-07T14:31:21.086Z,34.88
2017-08-07T14:33:37.434Z,34
2017-08-07T14:35:53.768Z,34.19
2017-08-07T14:38:18.610Z,34.47
2017-08-07T14:40:34.948Z,34.19
2017-08-07T14:42:59.772Z,35.81
2017-08-07T14:45:16.101Z,35.26
2017-08-07T14:47:40.871Z,34.78
2017-08-07T14:49:57.169Z,34.58
2017-08-07T14:52:21.980Z,33.78
2017-08-07T14:54:46.774Z,33.61
2017-08-07T14:57:11.588Z,33.69
2017-08-07T14:59:19.487Z,33.22
2017-08-07T15:01:44.221Z,33.2
2017-08-07T15:04:09.002Z,33.22
2017-08-07T15:06:33.792Z,34.27
2017-08-07T15:08:58.607Z,33.53
2017-08-07T15:11:14.936Z,33.8
2017-08-07T15:13:39.710Z,33.88
2017-08-07T15:15:39.067Z,33.9
2017-08-07T15:17:21.630Z,33.23
2017-08-07T15:19:46.454Z,33.9
2017-08-07T15:22:11.261Z,34.86
2017-08-07T15:24:36.074Z,34.58
2017-08-07T15:27:00.905Z,35.83
2017-08-07T15:29:25.756Z,35.85
2017-08-07T15:31:27.265Z,36.12
2017-08-07T15:33:43.642Z,36.04
2017-08-07T15:36:08.447Z,36.02
2017-08-07T15:38:33.223Z,34.97
2017-08-07T15:40:58.030Z,34.55
2017-08-07T15:43:05.838Z,34.84
2017-08-07T15:45:30.617Z,35.25
2017-08-07T15:47:23.687Z,35.05
2017-08-07T15:49:48.500Z,35.25
2017-08-07T15:52:13.273Z,34.48
2017-08-07T15:54:29.581Z,34.19
2017-08-07T15:56:37.398Z,34.55
2017-08-07T15:59:02.170Z,35.34
2017-08-07T16:01:18.491Z,35.73
2017-08-07T16:03:43.340Z,36.1
2017-08-07T16:06:09.024Z,36
2017-08-07T16:08:34.305Z,34.95
2017-08-07T16:10:36.333Z,35.34
2017-08-07T16:13:01.110Z,35.81
2017-08-07T16:15:17.764Z,35.63
2017-08-07T16:17:42.715Z,36.1
2017-08-07T16:20:07.576Z,36.96
2017-08-07T16:22:23.884Z,36.59
2017-08-07T16:24:40.095Z,37.16
2017-08-07T16:27:04.848Z,36.77
2017-08-07T16:29:29.615Z,35.71
2017-08-07T16:31:54.472Z,36.1
2017-08-07T16:34:19.175Z,35.91
2017-08-07T16:36:44.039Z,35.91
2017-08-07T16:39:08.612Z,36.38
2017-08-07T16:41:33.440Z,36.47
2017-08-07T16:43:58.157Z,36.3
2017-08-07T16:46:22.851Z,36.2
2017-08-07T16:48:47.537Z,36.1
2017-08-07T16:51:12.266Z,35.44
2017-08-07T16:53:37.015Z,36.18
2017-08-07T16:56:01.746Z,36.3
2017-08-07T16:58:26.483Z,36.57
2017-08-07T17:00:42.762Z,36.77
2017-08-07T17:02:50.545Z,36.57
2017-08-07T17:05:15.215Z,36.3
2017-08-07T17:07:39.911Z,36.79
2017-08-07T17:10:04.627Z,36.88
2017-08-07T17:12:29.363Z,37.46
2017-08-07T17:14:54.027Z,37.46
2017-08-07T17:16:55.542Z,38.13
2017-08-07T17:19:20.284Z,37.76
2017-08-07T17:21:36.485Z,37.1
2017-08-07T17:23:52.713Z,37.76
2017-08-07T17:26:17.407Z,38.5
2017-08-07T17:28:42.111Z,38.21
2017-08-07T17:31:07.387Z,38.79
2017-08-07T17:33:32.078Z,38.7
2017-08-07T17:35:56.752Z,38.23
2017-08-07T17:38:21.421Z,38.48
2017-08-07T17:40:46.105Z,38.79
2017-08-07T17:42:53.835Z,39.57
2017-08-07T17:45:18.512Z,39.47
2017-08-07T17:47:43.171Z,39.65
2017-08-07T17:50:07.880Z,39.36
2017-08-07T17:52:32.543Z,39.65
2017-08-07T17:55:12.295Z,39.16
2017-08-07T17:57:36.939Z,39.26
2017-08-07T18:00:01.619Z,40.13
2017-08-07T18:02:27.249Z,40.31
2017-08-07T18:04:43.275Z,40.31
2017-08-07T18:07:07.856Z,40.21
2017-08-07T18:09:32.493Z,40.79
2017-08-07T18:11:57.101Z,40.81
2017-08-07T18:14:07.215Z,40.62
2017-08-07T18:16:33.540Z,40.91
2017-08-07T18:18:56.575Z,40.91
2017-08-07T18:21:27.277Z,41.69
2017-08-07T18:23:51.075Z,42.35
2017-08-07T18:26:15.678Z,42.35
2017-08-07T18:28:40.317Z,43.02
2017-08-07T18:31:04.946Z,42.44
2017-08-07T18:33:29.518Z,43.2
2017-08-07T18:35:45.674Z,43.88
2017-08-07T18:38:10.270Z,43.88
2017-08-07T18:40:34.775Z,43.86
2017-08-07T18:42:59.331Z,44.07
2017-08-07T18:45:23.927Z,44.75
2017-08-07T18:47:48.503Z,45.02
2017-08-07T18:50:13.036Z,46.26
2017-08-07T18:52:38.120Z,46.26
2017-08-07T18:54:54.152Z,46.19
2017-08-07T18:57:18.671Z,46.65
2017-08-07T18:59:43.212Z,46.55
2017-08-07T19:02:07.814Z,47.03
2017-08-07T19:04:32.373Z,47.11
2017-08-07T19:06:56.910Z,47.98
2017-08-07T19:09:21.414Z,47.72
2017-08-07T19:11:37.503Z,47.42
2017-08-07T19:14:02.021Z,48.18
2017-08-07T19:16:26.500Z,48.95
2017-08-07T19:18:51.033Z,48.47
2017-08-07T19:21:15.556Z,48.76
2017-08-07T19:23:40.069Z,49.41
2017-08-07T19:25:56.094Z,48.76
2017-08-07T19:28:20.609Z,49.32
2017-08-07T19:30:45.084Z,49.8
2017-08-07T19:33:09.567Z,49.12
2017-08-07T19:35:33.985Z,49.15
2017-08-07T19:37:58.436Z,49.24
2017-08-07T19:40:22.956Z,50.09
2017-08-07T19:42:15.974Z,50.19
2017-08-07T19:44:40.456Z,49.24
2017-08-07T19:46:56.419Z,49.9
2017-08-07T19:49:20.790Z,49.8
2017-08-07T19:51:45.170Z,50.35
2017-08-07T19:54:09.602Z,50.35
2017-08-07T19:56:34.041Z,50.65
2017-08-07T19:58:50.015Z,51.4
2017-08-07T20:01:14.424Z,51.62
2017-08-07T20:03:38.854Z,51.5
2017-08-07T20:05:54.812Z,51.52
2017-08-07T20:08:10.770Z,51.98
2017-08-07T20:10:35.170Z,52.66
2017-08-07T20:12:59.597Z,52.36
2017-08-07T20:15:23.984Z,52.66
2017-08-07T20:17:48.384Z,53.23
2017-08-07T20:20:12.773Z,53.59
2017-08-07T20:22:22.777Z,53.59
2017-08-07T20:24:47.169Z,54.11
2017-08-07T20:27:11.489Z,54.08
2017-08-07T20:29:35.826Z,54.66
2017-08-07T20:31:37.286Z,54.66
2017-08-07T20:33:53.208Z,54.66
2017-08-07T20:36:17.584Z,54.66
2017-08-07T20:38:42.296Z,54.95
2017-08-07T20:41:06.388Z,54.75
2017-08-07T20:43:16.399Z,55.24
2017-08-07T20:45:40.801Z,55.31
2017-08-07T20:47:50.768Z,55.79
2017-08-07T20:50:15.098Z,55.15
2017-08-07T20:52:25.104Z,55.05
2017-08-07T20:54:49.484Z,56.09
2017-08-07T20:57:13.849Z,56.93
2017-08-07T20:59:38.107Z,57.15
2017-08-07T21:02:02.430Z,56.76
2017-08-07T21:04:26.762Z,57.41
2017-08-07T21:06:51.061Z,56.86
2017-08-07T21:09:15.352Z,57.51
2017-08-07T21:11:39.636Z,57.73
2017-08-07T21:13:55.468Z,57.79
2017-08-07T21:16:19.758Z,57.79
2017-08-07T21:18:35.574Z,58.47
2017-08-07T21:20:51.407Z,58.57
2017-08-07T21:23:07.284Z,58.47
2017-08-07T21:25:31.559Z,59.51
2017-08-07T21:27:55.793Z,58.95
2017-08-07T21:30:05.780Z,59.31
2017-08-07T21:32:30.065Z,59.7
2017-08-07T21:34:54.364Z,59.6
2017-08-07T21:37:18.651Z,59.83
2017-08-07T21:39:42.926Z,59.8
2017-08-07T21:42:07.195Z,60.47
2017-08-07T21:44:31.471Z,60.38
2017-08-07T21:46:55.724Z,61.6
2017-08-07T21:49:21.114Z,61.22
2017-08-07T21:51:45.402Z,61.6
2017-08-07T21:54:01.174Z,61.8
2017-08-07T21:56:16.970Z,61.63
2017-08-07T21:58:41.254Z,61.34
2017-08-07T22:01:05.534Z,61.63
2017-08-07T22:03:29.807Z,61.44
2017-08-07T22:05:54.075Z,61.54
2017-08-07T22:07:55.604Z,62.37
2017-08-07T22:10:11.471Z,61.54
2017-08-07T22:12:27.296Z,61.34
2017-08-07T22:14:51.556Z,61.73
2017-08-07T22:17:15.811Z,62.28
2017-08-07T22:19:40.030Z,62.28
2017-08-07T22:22:04.300Z,62.31
2017-08-07T22:24:28.563Z,62.18
2017-08-07T22:26:52.827Z,63.4
2017-08-07T22:29:17.090Z,62.95
2017-08-07T22:31:41.337Z,62.86
2017-08-07T22:34:05.588Z,62.86
2017-08-07T22:36:07.014Z,62.76
2017-08-07T22:38:31.242Z,63.05
2017-08-07T22:40:55.487Z,63.34
2017-08-07T22:43:11.257Z,63.34
2017-08-07T22:45:35.466Z,64.11
2017-08-07T22:47:59.680Z,64.11
2017-08-07T22:50:15.449Z,63.92
2017-08-07T22:52:16.983Z,63.92
2017-08-07T22:54:41.212Z,65.53
2017-08-07T22:57:05.420Z,65.14
2017-08-07T22:59:21.193Z,65.05
2017-08-07T23:01:45.413Z,63.92
2017-08-07T23:04:09.634Z,63.92
2017-08-07T23:06:33.849Z,64.31
2017-08-07T23:08:58.078Z,64.11
2017-08-07T23:11:22.316Z,64.5
2017-08-07T23:13:46.600Z,64.11
2017-08-07T23:16:02.395Z,63.92
2017-08-07T23:18:26.618Z,63.73
2017-08-07T23:20:50.812Z,64.11
2017-08-07T23:23:15.002Z,63.92
2017-08-07T23:25:39.228Z,65.05
2017-08-07T23:27:32.679Z,65.53
2017-08-07T23:29:56.932Z,65.24
2017-08-07T23:32:21.157Z,64.5
2017-08-07T23:34:45.365Z,63.92
2017-08-07T23:37:09.576Z,64.5
2017-08-07T23:39:33.779Z,63.85
2017-08-07T23:41:57.996Z,64.24
2017-08-07T23:44:13.759Z,64.24
2017-08-07T23:46:38.091Z,64.5
2017-08-07T23:48:53.836Z,64.59
2017-08-07T23:51:18.045Z,64.98
2017-08-07T23:53:42.268Z,65.47
2017-08-07T23:56:06.458Z,65.75
2017-08-07T23:58:13.218Z,64.98
